createdAt,value
2018-03-14T00:00:12.422Z,5.90
2018-03-14T00:01:12.572Z,5.91
2018-03-14T00:02:12.727Z,5.91
2018-03-14T00:03:12.870Z,5.98
2018-03-14T00:04:13.021Z,5.93
2018-03-14T00:05:13.171Z,5.90
2018-03-14T00:06:13.322Z,5.83
2018-03-14T00:07:13.478Z,5.76
2018-03-14T00:08:13.620Z,5.84
2018-03-14T00:09:13.774Z,5.86
2018-03-14T00:10:13.929Z,5.99
2018-03-14T00:11:14.074Z,5.99
2018-03-14T00:12:14.230Z,5.90
2018-03-14T00:13:14.370Z,5.89
2018-03-14T00:14:14.507Z,5.79
2018-03-14T00:15:14.660Z,5.83
2018-03-14T00:16:14.809Z,5.89
2018-03-14T00:17:14.959Z,5.75
2018-03-14T00:18:15.107Z,5.69
2018-03-14T00:19:15.262Z,5.72
2018-03-14T00:20:15.437Z,5.80
2018-03-14T00:21:15.561Z,5.75
2018-03-14T00:22:15.707Z,5.72
2018-03-14T00:23:15.856Z,5.69
2018-03-14T00:24:16.007Z,5.69
2018-03-14T00:25:16.166Z,5.69
2018-03-14T00:26:16.307Z,5.68
2018-03-14T00:27:16.460Z,5.73
2018-03-14T00:28:16.611Z,5.73
2018-03-14T00:29:16.821Z,5.69
2018-03-14T00:30:16.912Z,5.72
2018-03-14T00:31:17.059Z,5.86
2018-03-14T00:32:17.210Z,5.72
2018-03-14T00:33:17.366Z,5.68
2018-03-14T00:34:17.520Z,5.91
2018-03-14T00:35:17.665Z,5.94
2018-03-14T00:36:17.814Z,5.99
2018-03-14T00:37:17.966Z,5.86
2018-03-14T00:38:18.116Z,5.97
2018-03-14T00:39:18.267Z,5.99
2018-03-14T00:40:18.417Z,5.94
2018-03-14T00:41:18.567Z,5.84
2018-03-14T00:42:18.719Z,5.99
2018-03-14T00:43:18.866Z,5.89
2018-03-14T00:44:19.030Z,6.02
2018-03-14T00:45:19.166Z,5.87
2018-03-14T00:46:19.318Z,5.97
2018-03-14T00:47:19.466Z,5.91
2018-03-14T00:48:19.625Z,5.84
2018-03-14T00:49:19.772Z,5.91
2018-03-14T00:50:19.921Z,5.93
2018-03-14T00:51:20.069Z,6.04
2018-03-14T00:52:20.223Z,5.98
2018-03-14T00:53:20.828Z,6.04
2018-03-14T00:54:20.521Z,6.02
2018-03-14T00:55:20.674Z,6.01
2018-03-14T00:56:20.826Z,5.93
2018-03-14T00:57:20.975Z,6.01
2018-03-14T00:58:21.122Z,5.93
2018-03-14T00:59:21.278Z,6.05
2018-03-14T01:00:21.428Z,6.07
2018-03-14T01:01:21.573Z,6.05
2018-03-14T01:02:21.725Z,6.01
2018-03-14T01:03:21.884Z,6.07
2018-03-14T01:04:22.033Z,6.05
2018-03-14T01:05:22.176Z,6.01
2018-03-14T01:06:22.332Z,6.04
2018-03-14T01:07:22.472Z,5.99
2018-03-14T01:08:22.624Z,6.04
2018-03-14T01:09:22.803Z,6.17
2018-03-14T01:10:22.952Z,6.16
2018-03-14T01:11:23.104Z,6.22
2018-03-14T01:12:23.261Z,6.16
2018-03-14T01:13:23.406Z,6.14
2018-03-14T01:14:23.563Z,6.05
2018-03-14T01:15:23.710Z,6.19
2018-03-14T01:16:23.863Z,6.16
2018-03-14T01:17:24.010Z,6.19
2018-03-14T01:18:24.155Z,6.16
2018-03-14T01:19:24.310Z,6.12
2018-03-14T01:20:24.459Z,6.07
2018-03-14T01:21:24.673Z,5.99
2018-03-14T01:22:24.757Z,5.99
2018-03-14T01:23:24.907Z,5.93
2018-03-14T01:24:25.057Z,5.89
2018-03-14T01:25:25.211Z,5.90
2018-03-14T01:26:25.367Z,5.93
2018-03-14T01:27:25.510Z,5.93
2018-03-14T01:28:25.660Z,5.91
2018-03-14T01:29:25.835Z,5.93
2018-03-14T01:30:26.212Z,5.87
2018-03-14T01:31:26.112Z,5.80
2018-03-14T01:32:26.264Z,5.68
2018-03-14T01:33:26.666Z,5.80
2018-03-14T01:34:26.574Z,5.76
2018-03-14T01:35:26.714Z,5.87
2018-03-14T01:36:26.865Z,5.80
2018-03-14T01:37:27.014Z,5.84
2018-03-14T01:38:27.164Z,5.89
2018-03-14T01:39:27.317Z,5.93
2018-03-14T01:40:27.465Z,5.91
2018-03-14T01:41:27.615Z,5.89
2018-03-14T01:42:27.766Z,5.90
2018-03-14T01:43:27.916Z,5.91
2018-03-14T01:44:28.068Z,5.87
2018-03-14T01:45:28.217Z,5.84
2018-03-14T01:46:28.369Z,5.90
2018-03-14T01:47:28.518Z,5.94
2018-03-14T01:48:28.678Z,5.87
2018-03-14T01:49:28.813Z,5.97
2018-03-14T01:50:28.969Z,5.91
2018-03-14T01:51:29.116Z,5.84
2018-03-14T01:52:29.265Z,5.89
2018-03-14T01:53:29.417Z,5.84
2018-03-14T01:54:29.567Z,5.82
2018-03-14T01:55:29.724Z,5.79
2018-03-14T01:56:29.868Z,5.98
2018-03-14T01:57:30.023Z,5.83
2018-03-14T01:58:30.167Z,5.90
2018-03-14T01:59:30.323Z,5.86
2018-03-14T02:00:30.487Z,5.86
2018-03-14T02:01:30.633Z,5.90
2018-03-14T02:02:30.782Z,5.90
2018-03-14T02:03:30.933Z,5.84
2018-03-14T02:04:31.086Z,5.86
2018-03-14T02:05:31.234Z,5.91
2018-03-14T02:06:31.382Z,5.86
2018-03-14T02:07:31.542Z,5.80
2018-03-14T02:08:31.683Z,5.91
2018-03-14T02:09:31.832Z,5.89
2018-03-14T02:10:32.417Z,5.87
2018-03-14T02:11:32.137Z,5.87
2018-03-14T02:12:32.285Z,5.93
2018-03-14T02:13:32.439Z,5.90
2018-03-14T02:14:32.582Z,5.93
2018-03-14T02:15:32.741Z,5.98
2018-03-14T02:16:33.234Z,5.87
2018-03-14T02:17:33.040Z,5.87
2018-03-14T02:18:33.187Z,6.01
2018-03-14T02:19:33.339Z,5.98
2018-03-14T02:20:33.489Z,5.97
2018-03-14T02:21:33.639Z,5.98
2018-03-14T02:22:33.789Z,5.94
2018-03-14T02:23:33.948Z,5.93
2018-03-14T02:24:34.090Z,5.94
2018-03-14T02:25:34.510Z,5.93
2018-03-14T02:26:34.393Z,5.87
2018-03-14T02:27:34.547Z,5.89
2018-03-14T02:28:34.692Z,5.93
2018-03-14T02:29:34.845Z,5.94
2018-03-14T02:30:34.995Z,6.02
2018-03-14T02:31:35.144Z,5.91
2018-03-14T02:32:35.300Z,5.98
2018-03-14T02:33:35.442Z,6.07
2018-03-14T02:34:35.601Z,5.94
2018-03-14T02:35:35.790Z,6.02
2018-03-14T02:36:35.898Z,5.84
2018-03-14T02:37:36.046Z,5.87
2018-03-14T02:38:36.195Z,5.93
2018-03-14T02:39:36.347Z,5.86
2018-03-14T02:40:36.497Z,5.87
2018-03-14T02:41:36.652Z,5.97
2018-03-14T02:42:36.801Z,6.02
2018-03-14T02:43:36.948Z,5.87
2018-03-14T02:44:37.106Z,5.98
2018-03-14T02:45:37.249Z,5.98
2018-03-14T02:46:37.397Z,5.90
2018-03-14T02:47:37.548Z,5.89
2018-03-14T02:48:37.700Z,5.99
2018-03-14T02:49:37.851Z,5.93
2018-03-14T02:50:37.999Z,6.02
2018-03-14T02:51:38.152Z,5.97
2018-03-14T02:52:38.304Z,6.02
2018-03-14T02:53:38.451Z,6.02
2018-03-14T02:54:38.602Z,5.98
2018-03-14T02:55:38.752Z,5.89
2018-03-14T02:56:38.907Z,6.02
2018-03-14T02:57:39.054Z,5.89
2018-03-14T02:58:39.202Z,6.02
2018-03-14T02:59:39.354Z,5.98
2018-03-14T03:00:39.509Z,5.93
2018-03-14T03:01:39.658Z,5.93
2018-03-14T03:02:39.823Z,5.91
2018-03-14T03:03:39.959Z,5.97
2018-03-14T03:04:40.102Z,5.98
2018-03-14T03:06:40.393Z,5.89
2018-03-14T03:07:40.542Z,5.93
2018-03-14T03:08:40.976Z,5.89
2018-03-14T03:09:40.887Z,5.98
2018-03-14T03:10:40.997Z,5.90
2018-03-14T03:11:41.145Z,5.87
2018-03-14T03:12:41.302Z,5.93
2018-03-14T03:13:41.443Z,5.90
2018-03-14T03:14:41.592Z,5.87
2018-03-14T03:15:41.742Z,5.98
2018-03-14T03:16:41.896Z,5.89
2018-03-14T03:17:42.044Z,5.91
2018-03-14T03:18:42.191Z,5.94
2018-03-14T03:19:42.345Z,5.89
2018-03-14T03:20:42.493Z,5.93
2018-03-14T03:21:42.642Z,5.89
2018-03-14T03:22:42.795Z,5.89
2018-03-14T03:23:42.942Z,5.87
2018-03-14T03:24:43.094Z,5.97
2018-03-14T03:25:43.243Z,5.93
2018-03-14T03:26:43.396Z,6.01
2018-03-14T03:27:43.546Z,5.94
2018-03-14T03:28:43.698Z,5.98
2018-03-14T03:29:43.845Z,6.04
2018-03-14T03:30:43.998Z,6.08
2018-03-14T03:31:44.146Z,6.04
2018-03-14T03:32:44.301Z,6.01
2018-03-14T03:33:44.456Z,5.99
2018-03-14T03:34:44.597Z,6.14
2018-03-14T03:35:44.750Z,6.20
2018-03-14T03:36:44.897Z,6.17
2018-03-14T03:37:45.049Z,6.19
2018-03-14T03:38:45.201Z,6.17
2018-03-14T03:39:45.350Z,6.08
2018-03-14T03:40:45.505Z,5.98
2018-03-14T03:41:45.651Z,6.02
2018-03-14T03:42:45.808Z,5.97
2018-03-14T03:43:45.962Z,5.97
2018-03-14T03:44:46.106Z,6.01
2018-03-14T03:45:46.499Z,6.04
2018-03-14T03:46:46.403Z,6.04
2018-03-14T03:47:46.560Z,6.05
2018-03-14T03:48:46.717Z,5.98
2018-03-14T03:49:46.858Z,6.08
2018-03-14T03:50:47.008Z,5.98
2018-03-14T03:51:47.159Z,6.05
2018-03-14T03:52:47.305Z,5.94
2018-03-14T03:53:47.459Z,5.89
2018-03-14T03:54:47.607Z,6.02
2018-03-14T03:55:47.757Z,5.94
2018-03-14T03:56:47.909Z,5.94
2018-03-14T03:57:48.063Z,6.07
2018-03-14T03:58:48.210Z,5.94
2018-03-14T03:59:48.360Z,5.94
2018-03-14T04:00:48.516Z,5.90
2018-03-14T04:01:48.659Z,6.01
2018-03-14T04:02:48.815Z,5.86
2018-03-14T04:03:48.970Z,5.98
2018-03-14T04:04:49.110Z,5.97
2018-03-14T04:05:49.263Z,6.07
2018-03-14T04:06:49.411Z,5.94
2018-03-14T04:07:49.567Z,5.99
2018-03-14T04:08:49.736Z,5.97
2018-03-14T04:09:49.893Z,5.89
2018-03-14T04:10:50.037Z,5.86
2018-03-14T04:11:50.204Z,5.89
2018-03-14T04:12:50.331Z,5.93
2018-03-14T04:13:50.480Z,5.99
2018-03-14T04:14:50.635Z,5.93
2018-03-14T04:15:50.785Z,5.98
2018-03-14T04:16:50.938Z,6.04
2018-03-14T04:17:51.107Z,5.98
2018-03-14T04:18:51.234Z,5.94
2018-03-14T04:19:51.388Z,6.02
2018-03-14T04:20:51.536Z,6.04
2018-03-14T04:21:51.690Z,6.01
2018-03-14T04:22:52.092Z,6.01
2018-03-14T04:23:52.022Z,6.04
2018-03-14T04:24:52.141Z,5.97
2018-03-14T04:25:52.302Z,5.94
2018-03-14T04:26:52.445Z,5.93
2018-03-14T04:27:52.594Z,6.02
2018-03-14T04:28:52.757Z,5.99
2018-03-14T04:29:52.884Z,5.97
2018-03-14T04:30:53.041Z,5.97
2018-03-14T04:31:53.190Z,5.93
2018-03-14T04:32:53.340Z,5.99
2018-03-14T04:33:53.489Z,6.02
2018-03-14T04:34:53.638Z,6.05
2018-03-14T04:35:53.791Z,6.02
2018-03-14T04:36:53.938Z,6.05
2018-03-14T04:37:54.091Z,6.05
2018-03-14T04:38:54.240Z,6.08
2018-03-14T04:39:54.389Z,6.01
2018-03-14T04:40:54.551Z,5.99
2018-03-14T04:41:54.686Z,6.01
2018-03-14T04:42:54.835Z,5.97
2018-03-14T04:43:54.991Z,5.94
2018-03-14T04:44:55.133Z,6.01
2018-03-14T04:45:55.283Z,5.94
2018-03-14T04:46:55.436Z,6.04
2018-03-14T04:47:55.589Z,6.05
2018-03-14T04:48:55.739Z,6.14
2018-03-14T04:49:55.889Z,6.07
2018-03-14T04:50:56.040Z,5.99
2018-03-14T04:51:56.188Z,6.07
2018-03-14T04:52:56.343Z,6.02
2018-03-14T04:53:56.492Z,5.99
2018-03-14T04:54:56.644Z,5.98
2018-03-14T04:55:56.792Z,6.04
2018-03-14T04:56:56.938Z,6.01
2018-03-14T04:57:57.095Z,5.98
2018-03-14T04:58:57.238Z,5.98
2018-03-14T04:59:57.390Z,6.05
2018-03-14T05:00:57.539Z,5.98
2018-03-14T05:01:57.692Z,6.04
2018-03-14T05:02:57.842Z,6.05
2018-03-14T05:03:57.989Z,6.01
2018-03-14T05:04:58.142Z,6.11
2018-03-14T05:05:58.295Z,6.08
2018-03-14T05:06:58.442Z,6.17
2018-03-14T05:07:58.595Z,6.24
2018-03-14T05:08:58.749Z,6.07
2018-03-14T05:09:58.899Z,6.07
2018-03-14T05:10:59.046Z,6.04
2018-03-14T05:11:59.197Z,6.02
2018-03-14T05:12:59.348Z,6.14
2018-03-14T05:13:59.499Z,6.05
2018-03-14T05:14:59.648Z,6.14
2018-03-14T05:15:59.802Z,6.16
2018-03-14T05:16:59.955Z,6.19
2018-03-14T05:19:00.246Z,6.28
2018-03-14T05:20:00.405Z,6.28
2018-03-14T05:21:00.555Z,6.31
2018-03-14T05:22:00.699Z,6.30
2018-03-14T05:23:00.847Z,6.30
2018-03-14T05:24:00.996Z,6.26
2018-03-14T05:25:01.164Z,6.27
2018-03-14T05:26:01.299Z,6.24
2018-03-14T05:27:01.452Z,6.38
2018-03-14T05:28:01.602Z,6.46
2018-03-14T05:29:01.751Z,6.42
2018-03-14T05:30:01.906Z,6.45
2018-03-14T05:31:02.058Z,6.46
2018-03-14T05:32:02.202Z,6.44
2018-03-14T05:33:02.355Z,6.33
2018-03-14T05:34:02.504Z,6.45
2018-03-14T05:35:02.652Z,6.42
2018-03-14T05:36:02.809Z,6.38
2018-03-14T05:37:02.955Z,6.42
2018-03-14T05:38:03.105Z,6.45
2018-03-14T05:39:03.260Z,6.42
2018-03-14T05:40:03.407Z,6.41
2018-03-14T05:41:03.567Z,6.39
2018-03-14T05:42:03.704Z,6.26
2018-03-14T05:43:03.852Z,6.33
2018-03-14T05:44:04.006Z,6.31
2018-03-14T05:45:04.155Z,6.31
2018-03-14T05:46:04.309Z,6.30
2018-03-14T05:47:04.460Z,6.38
2018-03-14T05:48:04.611Z,6.39
2018-03-14T05:49:04.761Z,6.28
2018-03-14T05:50:04.910Z,6.42
2018-03-14T05:51:05.063Z,6.44
2018-03-14T05:52:05.211Z,6.41
2018-03-14T05:53:05.363Z,6.42
2018-03-14T05:54:05.513Z,6.49
2018-03-14T05:55:05.675Z,6.44
2018-03-14T05:56:05.817Z,6.41
2018-03-14T05:57:05.969Z,6.45
2018-03-14T05:58:06.119Z,6.42
2018-03-14T05:59:06.268Z,6.31
2018-03-14T06:00:06.417Z,6.36
2018-03-14T06:02:06.711Z,6.41
2018-03-14T06:03:06.860Z,6.41
2018-03-14T06:04:07.008Z,6.41
2018-03-14T06:05:07.165Z,6.26
2018-03-14T06:06:07.317Z,6.31
2018-03-14T06:07:07.466Z,6.20
2018-03-14T06:08:07.614Z,6.24
2018-03-14T06:09:07.765Z,6.36
2018-03-14T06:10:07.922Z,6.31
2018-03-14T06:11:08.072Z,6.28
2018-03-14T06:12:08.222Z,6.28
2018-03-14T06:13:08.370Z,6.30
2018-03-14T06:14:08.523Z,6.27
2018-03-14T06:15:08.676Z,6.35
2018-03-14T06:16:08.828Z,6.26
2018-03-14T06:17:08.977Z,6.31
2018-03-14T06:18:09.126Z,6.35
2018-03-14T06:19:09.276Z,6.30
2018-03-14T06:20:09.429Z,6.22
2018-03-14T06:21:09.579Z,6.22
2018-03-14T06:22:09.728Z,6.22
2018-03-14T06:23:09.878Z,6.33
2018-03-14T06:24:10.030Z,6.28
2018-03-14T06:25:10.184Z,6.38
2018-03-14T06:26:10.332Z,6.41
2018-03-14T06:27:10.484Z,6.39
2018-03-14T06:28:10.632Z,6.39
2018-03-14T06:29:10.782Z,6.51
2018-03-14T06:30:10.938Z,6.44
2018-03-14T06:31:11.085Z,6.44
2018-03-14T06:32:11.234Z,6.56
2018-03-14T06:33:11.383Z,6.49
2018-03-14T06:34:11.540Z,6.59
2018-03-14T06:35:11.947Z,6.49
2018-03-14T06:36:11.883Z,6.59
2018-03-14T06:37:12.001Z,6.54
2018-03-14T06:38:12.376Z,6.57
2018-03-14T06:39:12.276Z,6.63
2018-03-14T06:40:12.421Z,6.62
2018-03-14T06:41:12.830Z,6.75
2018-03-14T06:42:12.725Z,6.79
2018-03-14T06:43:12.873Z,6.64
2018-03-14T06:44:13.026Z,6.78
2018-03-14T06:45:13.180Z,6.75
2018-03-14T06:46:13.333Z,6.74
2018-03-14T06:47:13.476Z,6.70
2018-03-14T06:48:13.626Z,6.79
2018-03-14T06:49:13.777Z,6.70
2018-03-14T06:50:13.928Z,6.79
2018-03-14T06:51:14.078Z,6.72
2018-03-14T06:52:14.230Z,6.77
2018-03-14T06:53:14.625Z,6.74
2018-03-14T06:54:14.532Z,6.69
2018-03-14T06:55:14.682Z,6.78
2018-03-14T06:56:14.836Z,6.69
2018-03-14T06:57:14.990Z,6.70
2018-03-14T06:58:15.138Z,6.63
2018-03-14T06:59:15.282Z,6.74
2018-03-14T07:00:15.444Z,6.81
2018-03-14T07:01:15.589Z,6.69
2018-03-14T07:02:15.738Z,6.75
2018-03-14T07:03:15.891Z,6.79
2018-03-14T07:04:16.045Z,6.75
2018-03-14T07:05:16.191Z,6.64
2018-03-14T07:06:16.345Z,6.64
2018-03-14T07:07:16.493Z,6.59
2018-03-14T07:08:16.645Z,6.63
2018-03-14T07:09:16.796Z,6.62
2018-03-14T07:10:16.950Z,6.62
2018-03-14T07:11:17.098Z,6.52
2018-03-14T07:12:17.251Z,6.59
2018-03-14T07:13:17.399Z,6.46
2018-03-14T07:14:17.549Z,6.51
2018-03-14T07:15:17.704Z,6.45
2018-03-14T07:16:17.855Z,6.26
2018-03-14T07:17:18.013Z,6.27
2018-03-14T07:18:18.397Z,6.36
2018-03-14T07:19:18.302Z,6.31
2018-03-14T07:20:18.456Z,6.41
2018-03-14T07:21:18.611Z,6.38
2018-03-14T07:22:18.758Z,6.46
2018-03-14T07:23:18.915Z,6.46
2018-03-14T07:24:19.065Z,6.57
2018-03-14T07:25:19.211Z,6.59
2018-03-14T07:26:19.361Z,6.57
2018-03-14T07:27:19.511Z,6.82
2018-03-14T07:28:19.663Z,6.69
2018-03-14T07:29:19.816Z,6.74
2018-03-14T07:30:19.964Z,6.84
2018-03-14T07:31:20.117Z,6.85
2018-03-14T07:32:20.268Z,7.02
2018-03-14T07:34:20.565Z,7.25
2018-03-14T07:35:20.715Z,7.33
2018-03-14T07:36:20.884Z,7.45
2018-03-14T07:37:21.026Z,7.48
2018-03-14T07:38:21.166Z,7.54
2018-03-14T07:39:21.319Z,7.69
2018-03-14T07:40:21.477Z,7.60
2018-03-14T07:41:21.623Z,7.61
2018-03-14T07:42:21.770Z,7.66
2018-03-14T07:43:21.926Z,7.82
2018-03-14T07:44:22.075Z,7.76
2018-03-14T07:45:22.227Z,7.87
2018-03-14T07:46:22.376Z,7.76
2018-03-14T07:47:22.526Z,7.88
2018-03-14T07:48:22.681Z,7.87
2018-03-14T07:49:22.844Z,7.80
2018-03-14T07:50:22.988Z,7.91
2018-03-14T07:51:23.140Z,7.87
2018-03-14T07:52:23.290Z,7.91
2018-03-14T07:53:23.440Z,7.80
2018-03-14T07:54:23.592Z,7.80
2018-03-14T07:55:23.745Z,7.72
2018-03-14T07:56:23.901Z,7.76
2018-03-14T07:57:24.046Z,7.79
2018-03-14T07:58:24.541Z,7.63
2018-03-14T07:59:24.351Z,7.72
2018-03-14T08:00:24.504Z,7.63
2018-03-14T08:01:24.658Z,7.57
2018-03-14T08:02:24.823Z,7.57
2018-03-14T08:03:24.956Z,7.60
2018-03-14T08:04:25.120Z,7.60
2018-03-14T08:05:25.269Z,7.63
2018-03-14T08:06:25.417Z,7.58
2018-03-14T08:07:25.570Z,7.63
2018-03-14T08:08:25.725Z,7.53
2018-03-14T08:09:25.872Z,7.54
2018-03-14T08:10:26.035Z,7.45
2018-03-14T08:11:26.178Z,7.42
2018-03-14T08:12:26.336Z,7.48
2018-03-14T08:13:26.551Z,7.42
2018-03-14T08:14:26.629Z,7.35
2018-03-14T08:15:26.783Z,7.43
2018-03-14T08:16:26.930Z,7.42
2018-03-14T08:17:27.088Z,7.38
2018-03-14T08:18:27.233Z,7.35
2018-03-14T08:19:27.386Z,7.32
2018-03-14T08:20:27.535Z,7.33
2018-03-14T08:21:27.742Z,7.33
2018-03-14T08:22:27.835Z,7.29
2018-03-14T08:23:28.009Z,7.43
2018-03-14T08:24:28.150Z,7.40
2018-03-14T08:25:28.300Z,7.33
2018-03-14T08:26:28.453Z,7.40
2018-03-14T08:27:28.607Z,7.43
2018-03-14T08:28:28.756Z,7.45
2018-03-14T08:29:28.904Z,7.42
2018-03-14T08:30:29.055Z,7.47
2018-03-14T08:31:29.230Z,7.48
2018-03-14T08:32:29.356Z,7.45
2018-03-14T08:33:29.505Z,7.50
2018-03-14T08:34:29.669Z,7.45
2018-03-14T08:35:29.807Z,7.39
2018-03-14T08:36:29.959Z,7.40
2018-03-14T08:37:30.110Z,7.40
2018-03-14T08:38:30.517Z,7.40
2018-03-14T08:39:30.415Z,7.32
2018-03-14T08:40:30.566Z,7.31
2018-03-14T08:41:30.775Z,7.36
2018-03-14T08:42:30.863Z,7.31
2018-03-14T08:43:31.013Z,7.39
2018-03-14T08:44:31.175Z,7.38
2018-03-14T08:45:31.315Z,7.32
2018-03-14T08:46:31.464Z,7.38
2018-03-14T08:47:31.614Z,7.48
2018-03-14T08:48:31.765Z,7.50
2018-03-14T08:49:31.916Z,7.56
2018-03-14T08:50:32.071Z,7.60
2018-03-14T08:51:32.220Z,7.54
2018-03-14T08:52:32.371Z,7.69
2018-03-14T08:53:32.518Z,7.69
2018-03-14T08:54:32.664Z,7.66
2018-03-14T08:55:32.814Z,7.66
2018-03-14T08:56:32.979Z,7.85
2018-03-14T08:57:33.131Z,7.76
2018-03-14T08:58:33.279Z,7.73
2018-03-14T08:59:33.466Z,7.79
2018-03-14T09:00:33.593Z,7.79
2018-03-14T09:01:33.746Z,7.80
2018-03-14T09:02:33.899Z,7.77
2018-03-14T09:03:34.053Z,7.80
2018-03-14T09:04:34.205Z,7.80
2018-03-14T09:05:34.357Z,7.87
2018-03-14T09:06:34.509Z,7.83
2018-03-14T09:07:34.659Z,7.80
2018-03-14T09:08:34.813Z,7.93
2018-03-14T09:09:34.962Z,8.03
2018-03-14T09:10:35.118Z,8.12
2018-03-14T09:11:35.263Z,8.03
2018-03-14T09:12:35.413Z,8.13
2018-03-14T09:13:35.567Z,8.16
2018-03-14T09:14:35.722Z,8.30
2018-03-14T09:15:35.876Z,8.41
2018-03-14T09:16:36.019Z,8.51
2018-03-14T09:17:36.171Z,8.58
2018-03-14T09:18:36.560Z,8.52
2018-03-14T09:19:36.484Z,8.49
2018-03-14T09:20:36.603Z,8.49
2018-03-14T09:21:36.994Z,8.31
2018-03-14T09:22:36.906Z,8.31
2018-03-14T09:23:37.061Z,8.18
2018-03-14T09:24:37.208Z,8.19
2018-03-14T09:25:37.368Z,8.16
2018-03-14T09:26:37.525Z,8.24
2018-03-14T09:27:37.669Z,8.31
2018-03-14T09:28:37.824Z,8.37
2018-03-14T09:29:37.971Z,8.33
2018-03-14T09:30:38.118Z,8.26
2018-03-14T09:31:38.271Z,8.41
2018-03-14T09:32:38.419Z,8.61
2018-03-14T09:33:38.573Z,8.53
2018-03-14T09:34:38.724Z,8.52
2018-03-14T09:35:38.873Z,8.61
2018-03-14T09:36:39.026Z,8.58
2018-03-14T09:37:39.176Z,8.56
2018-03-14T09:38:39.338Z,8.64
2018-03-14T09:39:39.481Z,8.71
2018-03-14T09:40:39.633Z,8.79
2018-03-14T09:41:39.795Z,8.67
2018-03-14T09:42:39.937Z,8.66
2018-03-14T09:43:40.086Z,8.73
2018-03-14T09:44:40.239Z,8.71
2018-03-14T09:45:40.393Z,8.69
2018-03-14T09:46:40.543Z,8.61
2018-03-14T09:47:40.690Z,8.58
2018-03-14T09:48:40.841Z,8.67
2018-03-14T09:49:41.001Z,8.78
2018-03-14T09:50:41.143Z,8.85
2018-03-14T09:51:41.297Z,8.74
2018-03-14T09:52:41.448Z,8.89
2018-03-14T09:53:41.607Z,8.76
2018-03-14T09:54:41.754Z,8.78
2018-03-14T09:55:41.913Z,8.89
2018-03-14T09:56:42.060Z,8.92
2018-03-14T09:57:42.212Z,9.03
2018-03-14T09:58:42.368Z,9.13
2018-03-14T09:59:42.511Z,9.06
2018-03-14T10:00:42.672Z,9.03
2018-03-14T10:01:42.818Z,9.03
2018-03-14T10:02:42.973Z,9.21
2018-03-14T10:03:43.118Z,9.14
2018-03-14T10:04:43.270Z,9.19
2018-03-14T10:05:43.428Z,9.08
2018-03-14T10:06:43.573Z,9.11
2018-03-14T10:07:43.729Z,9.04
2018-03-14T10:08:43.882Z,8.91
2018-03-14T10:09:44.031Z,8.92
2018-03-14T10:10:44.186Z,8.91
2018-03-14T10:11:44.342Z,9.03
2018-03-14T10:12:44.492Z,9.13
2018-03-14T10:13:44.639Z,9.10
2018-03-14T10:14:44.789Z,9.13
2018-03-14T10:15:44.951Z,9.02
2018-03-14T10:16:45.099Z,9.02
2018-03-14T10:17:45.251Z,9.18
2018-03-14T10:18:45.407Z,9.25
2018-03-14T10:19:45.555Z,9.21
2018-03-14T10:20:45.706Z,9.28
2018-03-14T10:21:45.861Z,9.32
2018-03-14T10:22:46.009Z,9.40
2018-03-14T10:23:46.164Z,9.41
2018-03-14T10:24:46.324Z,9.40
2018-03-14T10:25:46.604Z,9.39
2018-03-14T10:26:46.620Z,9.40
2018-03-14T10:27:46.775Z,9.39
2018-03-14T10:28:46.935Z,9.41
2018-03-14T10:29:47.086Z,9.26
2018-03-14T10:30:47.231Z,9.22
2018-03-14T10:31:47.388Z,9.21
2018-03-14T10:32:47.543Z,9.03
2018-03-14T10:33:47.691Z,8.92
2018-03-14T10:34:47.849Z,8.88
2018-03-14T10:35:47.997Z,8.74
2018-03-14T10:36:48.151Z,8.71
2018-03-14T10:37:48.302Z,8.71
2018-03-14T10:39:48.599Z,8.70
2018-03-14T10:40:48.801Z,8.61
2018-03-14T10:41:48.906Z,8.71
2018-03-14T10:42:49.055Z,8.66
2018-03-14T10:43:49.215Z,8.69
2018-03-14T10:44:49.363Z,8.69
2018-03-14T10:45:49.512Z,8.73
2018-03-14T10:46:49.662Z,8.79
2018-03-14T10:47:49.859Z,8.67
2018-03-14T10:48:50.019Z,8.74
2018-03-14T10:49:50.160Z,8.82
2018-03-14T10:50:50.315Z,8.79
2018-03-14T10:51:50.496Z,8.76
2018-03-14T10:52:50.636Z,8.78
2018-03-14T10:53:50.785Z,8.70
2018-03-14T10:54:50.941Z,8.78
2018-03-14T10:55:51.092Z,8.74
2018-03-14T10:56:51.244Z,8.67
2018-03-14T10:57:51.398Z,8.67
2018-03-14T10:58:51.549Z,8.63
2018-03-14T10:59:51.700Z,8.64
2018-03-14T11:00:51.856Z,8.67
2018-03-14T11:01:52.012Z,8.81
2018-03-14T11:02:52.153Z,8.67
2018-03-14T11:03:52.571Z,8.66
2018-03-14T11:04:52.461Z,8.64
2018-03-14T11:05:52.618Z,8.69
2018-03-14T11:06:52.771Z,8.60
2018-03-14T11:07:52.959Z,8.69
2018-03-14T11:08:53.080Z,8.69
2018-03-14T11:09:53.224Z,8.69
2018-03-14T11:10:53.429Z,8.58
2018-03-14T11:11:53.503Z,8.64
2018-03-14T11:12:53.668Z,8.58
2018-03-14T11:13:53.808Z,8.70
2018-03-14T11:14:53.963Z,8.74
2018-03-14T11:15:54.120Z,8.73
2018-03-14T11:16:54.272Z,8.84
2018-03-14T11:17:54.422Z,8.74
2018-03-14T11:18:54.562Z,8.95
2018-03-14T11:19:54.716Z,8.94
2018-03-14T11:20:54.868Z,8.97
2018-03-14T11:21:55.009Z,9.02
2018-03-14T11:22:55.171Z,8.95
2018-03-14T11:23:55.329Z,8.95
2018-03-14T11:24:55.486Z,9.19
2018-03-14T11:25:55.637Z,9.28
2018-03-14T11:26:55.783Z,9.41
2018-03-14T11:27:55.943Z,9.32
2018-03-14T11:28:56.092Z,9.31
2018-03-14T11:29:56.239Z,9.23
2018-03-14T11:30:56.392Z,9.41
2018-03-14T11:31:56.557Z,9.28
2018-03-14T11:32:56.715Z,9.37
2018-03-14T11:33:56.906Z,9.56
2018-03-14T11:34:57.036Z,9.56
2018-03-14T11:35:57.185Z,9.56
2018-03-14T11:36:57.343Z,9.62
2018-03-14T11:37:57.493Z,9.51
2018-03-14T11:38:57.645Z,9.51
2018-03-14T11:39:57.807Z,9.48
2018-03-14T11:40:57.961Z,9.43
2018-03-14T11:41:58.098Z,9.50
2018-03-14T11:42:58.250Z,9.54
2018-03-14T11:43:58.406Z,9.41
2018-03-14T11:44:58.557Z,9.46
2018-03-14T11:45:58.704Z,9.55
2018-03-14T11:46:58.858Z,9.54
2018-03-14T11:47:59.024Z,9.61
2018-03-14T11:48:59.168Z,9.56
2018-03-14T11:49:59.333Z,9.61
2018-03-14T11:50:59.473Z,9.64
2018-03-14T11:51:59.626Z,9.56
2018-03-14T11:52:59.784Z,9.66
2018-03-14T11:53:59.930Z,9.61
2018-03-14T11:55:00.081Z,9.62
2018-03-14T11:56:00.233Z,9.64
2018-03-14T11:57:00.388Z,9.64
2018-03-14T11:58:00.541Z,9.65
2018-03-14T11:59:00.688Z,9.61
2018-03-14T12:00:00.843Z,9.61
2018-03-14T12:01:00.996Z,9.54
2018-03-14T12:02:01.143Z,9.55
2018-03-14T12:03:01.298Z,9.65
2018-03-14T12:04:01.453Z,9.74
2018-03-14T12:05:01.650Z,9.80
2018-03-14T12:06:01.764Z,9.86
2018-03-14T12:07:01.904Z,9.95
2018-03-14T12:08:02.055Z,9.83
2018-03-14T12:09:02.219Z,9.79
2018-03-14T12:10:02.360Z,9.76
2018-03-14T12:11:02.511Z,10.04
2018-03-14T12:12:02.923Z,9.99
2018-03-14T12:13:02.818Z,10.02
2018-03-14T12:14:02.971Z,10.09
2018-03-14T12:15:03.124Z,10.17
2018-03-14T12:16:03.277Z,10.17
2018-03-14T12:17:03.433Z,10.10
2018-03-14T12:18:03.582Z,10.10
2018-03-14T12:19:03.738Z,10.05
2018-03-14T12:20:03.896Z,10.10
2018-03-14T12:21:04.048Z,10.02
2018-03-14T12:22:04.203Z,10.01
2018-03-14T12:23:04.358Z,9.95
2018-03-14T12:24:04.504Z,9.74
2018-03-14T12:25:04.653Z,9.62
2018-03-14T12:26:04.805Z,9.68
2018-03-14T12:27:04.959Z,9.48
2018-03-14T12:28:05.115Z,9.54
2018-03-14T12:29:05.270Z,9.48
2018-03-14T12:30:05.429Z,9.36
2018-03-14T12:31:05.576Z,9.50
2018-03-14T12:32:05.732Z,9.39
2018-03-14T12:33:05.878Z,9.39
2018-03-14T12:34:06.033Z,9.36
2018-03-14T12:35:06.184Z,9.37
2018-03-14T12:36:06.335Z,9.25
2018-03-14T12:37:06.488Z,9.22
2018-03-14T12:38:06.639Z,9.18
2018-03-14T12:39:06.799Z,9.44
2018-03-14T12:40:06.951Z,9.39
2018-03-14T12:41:07.098Z,9.48
2018-03-14T12:42:07.252Z,9.51
2018-03-14T12:43:07.406Z,9.58
2018-03-14T12:44:07.556Z,9.65
2018-03-14T12:45:07.710Z,9.56
2018-03-14T12:46:08.180Z,9.55
2018-03-14T12:47:08.028Z,9.55
2018-03-14T12:48:08.177Z,9.58
2018-03-14T12:49:08.615Z,9.66
2018-03-14T12:50:08.482Z,9.66
2018-03-14T12:51:08.635Z,9.73
2018-03-14T12:52:08.798Z,9.82
2018-03-14T12:53:08.951Z,9.80
2018-03-14T12:54:09.102Z,9.66
2018-03-14T12:55:09.247Z,9.84
2018-03-14T12:56:09.398Z,10.01
2018-03-14T12:57:09.562Z,9.95
2018-03-14T12:58:09.703Z,9.82
2018-03-14T12:59:09.873Z,9.84
2018-03-14T13:00:10.014Z,9.77
2018-03-14T13:01:10.178Z,9.73
2018-03-14T13:02:10.321Z,9.84
2018-03-14T13:03:10.516Z,9.92
2018-03-14T13:04:10.638Z,10.28
2018-03-14T13:05:10.790Z,10.56
2018-03-14T13:06:10.942Z,10.79
2018-03-14T13:07:11.098Z,11.33
2018-03-14T13:08:11.252Z,11.37
2018-03-14T13:09:11.401Z,11.48
2018-03-14T13:10:11.554Z,11.29
2018-03-14T13:11:11.708Z,11.04
2018-03-14T13:12:11.866Z,10.84
2018-03-14T13:13:12.019Z,10.79
2018-03-14T13:14:12.174Z,10.75
2018-03-14T13:15:12.324Z,10.51
2018-03-14T13:16:12.475Z,10.34
2018-03-14T13:17:12.637Z,10.30
2018-03-14T13:18:12.789Z,10.07
2018-03-14T13:19:12.920Z,10.23
2018-03-14T13:20:13.097Z,10.16
2018-03-14T13:21:13.266Z,10.25
2018-03-14T13:22:13.391Z,10.37
2018-03-14T13:23:13.551Z,10.34
2018-03-14T13:24:13.695Z,10.40